sensor_id;sensor_type;location;lat;lon;timestamp;temperature;humidity
68387;DHT22;55338;43.062;25.624;2023-01-25T00:00:45;2.60;99.90
68387;DHT22;55338;43.062;25.624;2023-01-25T00:03:11;2.60;99.90
68387;DHT22;55338;43.062;25.624;2023-01-25T00:05:37;2.50;99.90
68387;DHT22;55338;43.062;25.624;2023-01-25T00:08:03;2.50;99.90
68387;DHT22;55338;43.062;25.624;2023-01-25T00:10:28;2.50;99.90
68387;DHT22;55338;43.062;25.624;2023-01-25T00:12:55;2.60;99.90
68387;DHT22;55338;43.062;25.624;2023-01-25T00:15:21;2.60;99.90
68387;DHT22;55338;43.062;25.624;2023-01-25T00:17:47;2.50;99.90
68387;DHT22;55338;43.062;25.624;2023-01-25T00:20:13;2.50;99.90
68387;DHT22;55338;43.062;25.624;2023-01-25T00:22:39;2.60;99.90
68387;DHT22;55338;43.062;25.624;2023-01-25T00:25:05;2.60;99.90
68387;DHT22;55338;43.062;25.624;2023-01-25T00:27:30;2.60;99.90
68387;DHT22;55338;43.062;25.624;2023-01-25T00:29:56;2.60;99.90
68387;DHT22;55338;43.062;25.624;2023-01-25T00:34:49;2.60;99.90
68387;DHT22;55338;43.062;25.624;2023-01-25T00:37:38;2.70;99.90
68387;DHT22;55338;43.062;25.624;2023-01-25T00:40:05;2.70;99.90
68387;DHT22;55338;43.062;25.624;2023-01-25T00:42:31;2.70;99.90
68387;DHT22;55338;43.062;25.624;2023-01-25T00:44:56;2.70;99.90
68387;DHT22;55338;43.062;25.624;2023-01-25T00:47:22;2.70;99.90
68387;DHT22;55338;43.062;25.624;2023-01-25T00:49:48;2.70;99.90
68387;DHT22;55338;43.062;25.624;2023-01-25T00:52:14;2.70;99.70
68387;DHT22;55338;43.062;25.624;2023-01-25T00:54:40;2.70;99.90
68387;DHT22;55338;43.062;25.624;2023-01-25T00:57:06;2.70;99.90
68387;DHT22;55338;43.062;25.624;2023-01-25T00:59:32;2.70;99.90
68387;DHT22;55338;43.062;25.624;2023-01-25T01:01:58;2.70;99.90
68387;DHT22;55338;43.062;25.624;2023-01-25T01:04:24;2.60;99.20
68387;DHT22;55338;43.062;25.624;2023-01-25T01:06:52;2.70;99.10
68387;DHT22;55338;43.062;25.624;2023-01-25T01:09:18;2.70;99.10
68387;DHT22;55338;43.062;25.624;2023-01-25T01:11:44;2.60;98.40
68387;DHT22;55338;43.062;25.624;2023-01-25T01:14:11;2.60;98.50
68387;DHT22;55338;43.062;25.624;2023-01-25T01:16:37;2.60;98.60
68387;DHT22;55338;43.062;25.624;2023-01-25T01:19:03;2.60;98.50
68387;DHT22;55338;43.062;25.624;2023-01-25T01:21:28;2.60;97.40
68387;DHT22;55338;43.062;25.624;2023-01-25T01:23:54;2.50;97.00
68387;DHT22;55338;43.062;25.624;2023-01-25T01:26:20;2.50;96.60
68387;DHT22;55338;43.062;25.624;2023-01-25T01:28:46;2.60;96.00
68387;DHT22;55338;43.062;25.624;2023-01-25T01:31:17;2.60;95.50
68387;DHT22;55338;43.062;25.624;2023-01-25T01:33:43;2.70;95.80
68387;DHT22;55338;43.062;25.624;2023-01-25T01:36:14;2.70;95.50
68387;DHT22;55338;43.062;25.624;2023-01-25T01:38:41;2.80;94.90
68387;DHT22;55338;43.062;25.624;2023-01-25T01:41:07;2.80;94.40
68387;DHT22;55338;43.062;25.624;2023-01-25T01:43:33;2.80;94.20
68387;DHT22;55338;43.062;25.624;2023-01-25T01:46:45;2.80;94.50
68387;DHT22;55338;43.062;25.624;2023-01-25T01:57:03;2.70;95.60
68387;DHT22;55338;43.062;25.624;2023-01-25T01:59:38;2.80;95.50
68387;DHT22;55338;43.062;25.624;2023-01-25T02:02:06;2.80;95.60
68387;DHT22;55338;43.062;25.624;2023-01-25T02:04:31;2.80;96.10
68387;DHT22;55338;43.062;25.624;2023-01-25T02:09:31;2.80;96.50
68387;DHT22;55338;43.062;25.624;2023-01-25T02:11:59;2.80;96.50
68387;DHT22;55338;43.062;25.624;2023-01-25T02:14:27;2.80;96.40
68387;DHT22;55338;43.062;25.624;2023-01-25T02:16:54;2.70;97.70
68387;DHT22;55338;43.062;25.624;2023-01-25T02:19:36;2.70;97.40
68387;DHT22;55338;43.062;25.624;2023-01-25T02:22:07;2.70;97.60
68387;DHT22;55338;43.062;25.624;2023-01-25T02:24:35;2.70;98.30
68387;DHT22;55338;43.062;25.624;2023-01-25T02:27:03;2.70;99.30
68387;DHT22;55338;43.062;25.624;2023-01-25T02:29:29;2.80;98.70
68387;DHT22;55338;43.062;25.624;2023-01-25T02:32:02;2.70;98.10
68387;DHT22;55338;43.062;25.624;2023-01-25T02:34:28;2.60;98.90
68387;DHT22;55338;43.062;25.624;2023-01-25T02:36:54;2.60;99.90
68387;DHT22;55338;43.062;25.624;2023-01-25T02:39:20;2.70;99.80
68387;DHT22;55338;43.062;25.624;2023-01-25T02:41:48;2.60;99.40
68387;DHT22;55338;43.062;25.624;2023-01-25T02:44:26;2.50;99.50
68387;DHT22;55338;43.062;25.624;2023-01-25T02:46:53;2.30;99.90
68387;DHT22;55338;43.062;25.624;2023-01-25T02:49:19;2.40;99.90
68387;DHT22;55338;43.062;25.624;2023-01-25T02:51:48;2.40;99.90
68387;DHT22;55338;43.062;25.624;2023-01-25T02:54:17;2.40;99.90
68387;DHT22;55338;43.062;25.624;2023-01-25T02:56:43;2.50;99.90
68387;DHT22;55338;43.062;25.624;2023-01-25T02:59:10;2.50;99.90
68387;DHT22;55338;43.062;25.624;2023-01-25T03:01:39;2.50;99.90
68387;DHT22;55338;43.062;25.624;2023-01-25T03:04:06;2.60;99.90
68387;DHT22;55338;43.062;25.624;2023-01-25T03:06:33;2.60;99.90
68387;DHT22;55338;43.062;25.624;2023-01-25T03:09:00;2.60;99.90
68387;DHT22;55338;43.062;25.624;2023-01-25T03:11:26;2.60;99.90
68387;DHT22;55338;43.062;25.624;2023-01-25T03:13:52;2.60;99.90
68387;DHT22;55338;43.062;25.624;2023-01-25T03:16:18;2.60;99.90
68387;DHT22;55338;43.062;25.624;2023-01-25T03:18:44;2.70;99.90
68387;DHT22;55338;43.062;25.624;2023-01-25T03:21:13;2.60;99.90
68387;DHT22;55338;43.062;25.624;2023-01-25T03:23:39;2.70;99.90
68387;DHT22;55338;43.062;25.624;2023-01-25T03:28:32;2.60;99.90
68387;DHT22;55338;43.062;25.624;2023-01-25T03:30:58;2.60;99.90
68387;DHT22;55338;43.062;25.624;2023-01-25T03:33:24;2.60;99.90
68387;DHT22;55338;43.062;25.624;2023-01-25T03:35:53;2.60;99.90
68387;DHT22;55338;43.062;25.624;2023-01-25T03:38:20;2.60;99.90
68387;DHT22;55338;43.062;25.624;2023-01-25T03:40:46;2.60;99.90
68387;DHT22;55338;43.062;25.624;2023-01-25T03:43:12;2.70;99.90
68387;DHT22;55338;43.062;25.624;2023-01-25T03:45:38;2.60;99.90
68387;DHT22;55338;43.062;25.624;2023-01-25T03:48:04;2.60;99.90
68387;DHT22;55338;43.062;25.624;2023-01-25T03:50:30;2.60;99.90
68387;DHT22;55338;43.062;25.624;2023-01-25T03:53:08;2.60;99.90
68387;DHT22;55338;43.062;25.624;2023-01-25T03:55:51;2.60;99.90
68387;DHT22;55338;43.062;25.624;2023-01-25T03:58:17;2.60;99.90
68387;DHT22;55338;43.062;25.624;2023-01-25T04:00:43;2.60;99.90
68387;DHT22;55338;43.062;25.624;2023-01-25T04:03:08;2.60;99.90
68387;DHT22;55338;43.062;25.624;2023-01-25T04:05:34;2.60;99.90
68387;DHT22;55338;43.062;25.624;2023-01-25T04:08:00;2.60;99.90
68387;DHT22;55338;43.062;25.624;2023-01-25T04:10:25;2.60;99.90
68387;DHT22;55338;43.062;25.624;2023-01-25T04:12:51;2.60;99.40
68387;DHT22;55338;43.062;25.624;2023-01-25T04:15:17;2.60;99.90
68387;DHT22;55338;43.062;25.624;2023-01-25T04:17:43;2.60;99.80
68387;DHT22;55338;43.062;25.624;2023-01-25T04:20:09;2.60;99.90
68387;DHT22;55338;43.062;25.624;2023-01-25T04:22:35;2.60;99.80
68387;DHT22;55338;43.062;25.624;2023-01-25T04:25:01;2.60;99.90
68387;DHT22;55338;43.062;25.624;2023-01-25T04:27:26;2.60;99.90
68387;DHT22;55338;43.062;25.624;2023-01-25T04:29:52;2.60;99.90
68387;DHT22;55338;43.062;25.624;2023-01-25T04:32:18;2.50;99.90
68387;DHT22;55338;43.062;25.624;2023-01-25T04:34:43;2.40;99.90
68387;DHT22;55338;43.062;25.624;2023-01-25T04:37:09;2.40;99.90
68387;DHT22;55338;43.062;25.624;2023-01-25T04:39:35;2.50;99.90
68387;DHT22;55338;43.062;25.624;2023-01-25T04:42:01;2.50;99.90
68387;DHT22;55338;43.062;25.624;2023-01-25T04:44:26;2.60;99.90
68387;DHT22;55338;43.062;25.624;2023-01-25T04:46:52;2.50;99.90
68387;DHT22;55338;43.062;25.624;2023-01-25T04:49:18;2.40;99.90
68387;DHT22;55338;43.062;25.624;2023-01-25T04:51:43;2.40;99.90
68387;DHT22;55338;43.062;25.624;2023-01-25T04:54:09;2.40;99.90
68387;DHT22;55338;43.062;25.624;2023-01-25T04:56:35;2.50;99.90
68387;DHT22;55338;43.062;25.624;2023-01-25T04:59:02;2.40;99.90
68387;DHT22;55338;43.062;25.624;2023-01-25T05:01:27;2.50;99.90
68387;DHT22;55338;43.062;25.624;2023-01-25T05:03:53;2.50;99.90
68387;DHT22;55338;43.062;25.624;2023-01-25T05:06:19;2.50;99.90
68387;DHT22;55338;43.062;25.624;2023-01-25T05:08:44;2.50;99.90
68387;DHT22;55338;43.062;25.624;2023-01-25T05:11:10;2.40;99.90
68387;DHT22;55338;43.062;25.624;2023-01-25T05:13:36;2.50;99.90
68387;DHT22;55338;43.062;25.624;2023-01-25T05:16:02;2.50;99.90
68387;DHT22;55338;43.062;25.624;2023-01-25T05:18:27;2.50;99.90
68387;DHT22;55338;43.062;25.624;2023-01-25T05:20:54;2.60;99.90
68387;DHT22;55338;43.062;25.624;2023-01-25T05:23:20;2.60;99.90
68387;DHT22;55338;43.062;25.624;2023-01-25T05:25:46;2.50;99.90
68387;DHT22;55338;43.062;25.624;2023-01-25T05:28:30;2.50;99.90
68387;DHT22;55338;43.062;25.624;2023-01-25T05:30:56;2.50;99.90
68387;DHT22;55338;43.062;25.624;2023-01-25T05:33:22;2.50;99.90
68387;DHT22;55338;43.062;25.624;2023-01-25T05:35:48;2.50;99.90
68387;DHT22;55338;43.062;25.624;2023-01-25T05:38:14;2.50;99.90
68387;DHT22;55338;43.062;25.624;2023-01-25T05:40:40;2.50;99.90
68387;DHT22;55338;43.062;25.624;2023-01-25T05:43:06;2.50;99.90
68387;DHT22;55338;43.062;25.624;2023-01-25T05:45:32;2.60;99.90
68387;DHT22;55338;43.062;25.624;2023-01-25T05:47:58;2.60;99.90
68387;DHT22;55338;43.062;25.624;2023-01-25T05:50:25;2.50;99.90
68387;DHT22;55338;43.062;25.624;2023-01-25T05:52:51;2.60;99.90
68387;DHT22;55338;43.062;25.624;2023-01-25T05:55:17;2.60;99.90
68387;DHT22;55338;43.062;25.624;2023-01-25T05:57:43;2.50;99.90
68387;DHT22;55338;43.062;25.624;2023-01-25T06:00:10;2.50;99.90
68387;DHT22;55338;43.062;25.624;2023-01-25T06:02:36;2.50;99.90
68387;DHT22;55338;43.062;25.624;2023-01-25T06:05:02;2.60;99.90
68387;DHT22;55338;43.062;25.624;2023-01-25T06:07:28;2.60;99.90
68387;DHT22;55338;43.062;25.624;2023-01-25T06:09:54;2.50;99.90
68387;DHT22;55338;43.062;25.624;2023-01-25T06:12:20;2.60;99.90
68387;DHT22;55338;43.062;25.624;2023-01-25T06:14:46;2.60;99.90
68387;DHT22;55338;43.062;25.624;2023-01-25T06:17:13;2.60;99.90
68387;DHT22;55338;43.062;25.624;2023-01-25T06:19:39;2.60;99.90
68387;DHT22;55338;43.062;25.624;2023-01-25T06:22:08;2.20;99.90
68387;DHT22;55338;43.062;25.624;2023-01-25T06:24:37;2.60;99.90
68387;DHT22;55338;43.062;25.624;2023-01-25T06:27:04;2.60;99.90
68387;DHT22;55338;43.062;25.624;2023-01-25T06:29:31;2.60;99.90
68387;DHT22;55338;43.062;25.624;2023-01-25T06:31:57;2.60;99.90
68387;DHT22;55338;43.062;25.624;2023-01-25T06:34:27;2.60;99.90
68387;DHT22;55338;43.062;25.624;2023-01-25T06:36:53;2.50;99.90
68387;DHT22;55338;43.062;25.624;2023-01-25T06:39:19;2.50;99.90
68387;DHT22;55338;43.062;25.624;2023-01-25T06:41:46;2.60;99.90
68387;DHT22;55338;43.062;25.624;2023-01-25T06:44:12;2.50;99.90
68387;DHT22;55338;43.062;25.624;2023-01-25T06:46:38;2.40;99.90
68387;DHT22;55338;43.062;25.624;2023-01-25T06:49:07;2.40;99.90
68387;DHT22;55338;43.062;25.624;2023-01-25T06:51:32;2.40;99.90
68387;DHT22;55338;43.062;25.624;2023-01-25T06:54:01;2.40;99.90
68387;DHT22;55338;43.062;25.624;2023-01-25T06:56:28;2.40;99.90
68387;DHT22;55338;43.062;25.624;2023-01-25T06:58:54;2.40;99.90
68387;DHT22;55338;43.062;25.624;2023-01-25T07:01:22;2.40;99.90
68387;DHT22;55338;43.062;25.624;2023-01-25T07:03:53;2.40;99.90
68387;DHT22;55338;43.062;25.624;2023-01-25T07:06:20;2.40;99.90
68387;DHT22;55338;43.062;25.624;2023-01-25T07:08:49;2.40;99.90
68387;DHT22;55338;43.062;25.624;2023-01-25T07:11:15;2.40;99.90
68387;DHT22;55338;43.062;25.624;2023-01-25T07:13:45;2.50;99.90
68387;DHT22;55338;43.062;25.624;2023-01-25T07:16:14;2.70;99.90
68387;DHT22;55338;43.062;25.624;2023-01-25T07:18:40;2.50;99.90
68387;DHT22;55338;43.062;25.624;2023-01-25T07:21:18;2.50;99.90
68387;DHT22;55338;43.062;25.624;2023-01-25T07:23:46;2.50;99.90
68387;DHT22;55338;43.062;25.624;2023-01-25T07:28:46;2.50;99.90
68387;DHT22;55338;43.062;25.624;2023-01-25T07:31:13;2.50;99.90
68387;DHT22;55338;43.062;25.624;2023-01-25T07:33:40;2.50;99.90
68387;DHT22;55338;43.062;25.624;2023-01-25T07:36:07;2.60;99.90
68387;DHT22;55338;43.062;25.624;2023-01-25T07:38:33;2.60;99.90
68387;DHT22;55338;43.062;25.624;2023-01-25T07:41:00;2.60;99.90
68387;DHT22;55338;43.062;25.624;2023-01-25T07:43:26;2.70;99.90
68387;DHT22;55338;43.062;25.624;2023-01-25T07:45:52;2.70;99.90
68387;DHT22;55338;43.062;25.624;2023-01-25T07:48:19;2.70;99.90
68387;DHT22;55338;43.062;25.624;2023-01-25T07:50:45;2.70;99.90
68387;DHT22;55338;43.062;25.624;2023-01-25T07:53:45;2.80;99.90
68387;DHT22;55338;43.062;25.624;2023-01-25T07:56:11;2.80;99.90
68387;DHT22;55338;43.062;25.624;2023-01-25T07:58:38;2.90;99.90
68387;DHT22;55338;43.062;25.624;2023-01-25T08:01:09;2.90;99.90
68387;DHT22;55338;43.062;25.624;2023-01-25T08:03:36;2.90;99.90
68387;DHT22;55338;43.062;25.624;2023-01-25T08:06:02;2.90;99.90
68387;DHT22;55338;43.062;25.624;2023-01-25T08:08:37;2.90;99.90
68387;DHT22;55338;43.062;25.624;2023-01-25T08:11:24;2.80;99.90
68387;DHT22;55338;43.062;25.624;2023-01-25T08:13:50;2.90;99.90
68387;DHT22;55338;43.062;25.624;2023-01-25T08:16:21;2.90;99.90
68387;DHT22;55338;43.062;25.624;2023-01-25T08:18:49;2.90;99.90
68387;DHT22;55338;43.062;25.624;2023-01-25T08:21:19;2.90;99.90
68387;DHT22;55338;43.062;25.624;2023-01-25T08:23:45;3.00;99.90
68387;DHT22;55338;43.062;25.624;2023-01-25T08:26:13;3.00;99.90
68387;DHT22;55338;43.062;25.624;2023-01-25T08:28:39;3.10;99.90
68387;DHT22;55338;43.062;25.624;2023-01-25T08:31:11;3.10;99.90
68387;DHT22;55338;43.062;25.624;2023-01-25T08:33:38;3.10;99.90
68387;DHT22;55338;43.062;25.624;2023-01-25T08:36:05;3.10;99.90
68387;DHT22;55338;43.062;25.624;2023-01-25T08:38:33;3.10;99.90
68387;DHT22;55338;43.062;25.624;2023-01-25T08:41:11;3.10;99.90
68387;DHT22;55338;43.062;25.624;2023-01-25T08:43:37;3.10;99.90
68387;DHT22;55338;43.062;25.624;2023-01-25T08:46:05;3.10;99.90
68387;DHT22;55338;43.062;25.624;2023-01-25T08:48:31;3.20;99.90
68387;DHT22;55338;43.062;25.624;2023-01-25T08:50:58;3.30;99.90
68387;DHT22;55338;43.062;25.624;2023-01-25T08:53:30;3.50;99.90
68387;DHT22;55338;43.062;25.624;2023-01-25T08:56:04;3.40;99.90
68387;DHT22;55338;43.062;25.624;2023-01-25T08:58:30;3.50;99.90
68387;DHT22;55338;43.062;25.624;2023-01-25T09:01:01;3.50;99.90
68387;DHT22;55338;43.062;25.624;2023-01-25T09:03:28;3.50;99.90
68387;DHT22;55338;43.062;25.624;2023-01-25T09:05:53;3.50;99.90
68387;DHT22;55338;43.062;25.624;2023-01-25T09:08:19;3.50;99.90
68387;DHT22;55338;43.062;25.624;2023-01-25T09:10:45;3.50;99.90
68387;DHT22;55338;43.062;25.624;2023-01-25T09:13:11;3.50;99.90
68387;DHT22;55338;43.062;25.624;2023-01-25T09:15:37;3.40;99.90
68387;DHT22;55338;43.062;25.624;2023-01-25T09:18:03;3.30;99.90
68387;DHT22;55338;43.062;25.624;2023-01-25T09:20:29;3.30;99.90
68387;DHT22;55338;43.062;25.624;2023-01-25T09:22:55;3.40;99.90
68387;DHT22;55338;43.062;25.624;2023-01-25T09:25:58;3.50;99.90
68387;DHT22;55338;43.062;25.624;2023-01-25T09:28:31;3.60;99.20
68387;DHT22;55338;43.062;25.624;2023-01-25T09:30:59;3.70;99.90
68387;DHT22;55338;43.062;25.624;2023-01-25T09:33:27;3.60;99.20
68387;DHT22;55338;43.062;25.624;2023-01-25T09:35:53;3.70;99.70
68387;DHT22;55338;43.062;25.624;2023-01-25T09:38:19;3.80;99.50
68387;DHT22;55338;43.062;25.624;2023-01-25T09:54:27;4.10;95.40
68387;DHT22;55338;43.062;25.624;2023-01-25T09:56:59;4.00;94.20
68387;DHT22;55338;43.062;25.624;2023-01-25T09:59:26;4.00;95.50
68387;DHT22;55338;43.062;25.624;2023-01-25T10:05:31;4.10;95.00
68387;DHT22;55338;43.062;25.624;2023-01-25T10:10:49;4.20;94.70
68387;DHT22;55338;43.062;25.624;2023-01-25T10:13:19;4.20;92.90
68387;DHT22;55338;43.062;25.624;2023-01-25T10:15:49;4.20;93.20
68387;DHT22;55338;43.062;25.624;2023-01-25T10:18:28;4.40;93.20
68387;DHT22;55338;43.062;25.624;2023-01-25T10:21:00;4.40;92.00
68387;DHT22;55338;43.062;25.624;2023-01-25T10:26:03;4.60;92.10
68387;DHT22;55338;43.062;25.624;2023-01-25T10:29:11;4.60;91.40
68387;DHT22;55338;43.062;25.624;2023-01-25T10:31:49;4.70;89.60
68387;DHT22;55338;43.062;25.624;2023-01-25T10:34:42;4.70;87.50
68387;DHT22;55338;43.062;25.624;2023-01-25T10:37:20;4.60;88.60
68387;DHT22;55338;43.062;25.624;2023-01-25T10:40:21;4.70;88.70
68387;DHT22;55338;43.062;25.624;2023-01-25T10:43:10;4.70;89.20
68387;DHT22;55338;43.062;25.624;2023-01-25T10:45:37;4.80;88.40
68387;DHT22;55338;43.062;25.624;2023-01-25T10:48:36;4.80;87.00
68387;DHT22;55338;43.062;25.624;2023-01-25T10:51:36;4.70;84.90
68387;DHT22;55338;43.062;25.624;2023-01-25T10:54:33;4.60;85.50
68387;DHT22;55338;43.062;25.624;2023-01-25T10:57:00;4.70;86.80
68387;DHT22;55338;43.062;25.624;2023-01-25T10:59:26;4.80;87.60
68387;DHT22;55338;43.062;25.624;2023-01-25T11:01:53;4.80;87.20
68387;DHT22;55338;43.062;25.624;2023-01-25T11:04:31;4.90;84.90
68387;DHT22;55338;43.062;25.624;2023-01-25T11:06:58;5.00;85.70
68387;DHT22;55338;43.062;25.624;2023-01-25T11:09:36;5.10;84.10
68387;DHT22;55338;43.062;25.624;2023-01-25T11:12:17;5.10;83.00
68387;DHT22;55338;43.062;25.624;2023-01-25T11:14:44;5.20;84.20
68387;DHT22;55338;43.062;25.624;2023-01-25T11:20:27;5.10;83.70
68387;DHT22;55338;43.062;25.624;2023-01-25T11:22:55;5.10;83.30
68387;DHT22;55338;43.062;25.624;2023-01-25T11:25:26;5.10;83.90
68387;DHT22;55338;43.062;25.624;2023-01-25T11:28:10;5.30;83.20
68387;DHT22;55338;43.062;25.624;2023-01-25T11:31:14;5.10;83.50
68387;DHT22;55338;43.062;25.624;2023-01-25T11:34:19;5.10;84.10
68387;DHT22;55338;43.062;25.624;2023-01-25T11:42:47;4.70;87.40
68387;DHT22;55338;43.062;25.624;2023-01-25T11:57:12;4.10;86.20
68387;DHT22;55338;43.062;25.624;2023-01-25T12:06:58;4.10;87.80
68387;DHT22;55338;43.062;25.624;2023-01-25T12:15:11;4.20;87.30
68387;DHT22;55338;43.062;25.624;2023-01-25T12:24:15;4.20;87.30
68387;DHT22;55338;43.062;25.624;2023-01-25T12:30:19;3.90;88.40
68387;DHT22;55338;43.062;25.624;2023-01-25T12:32:49;3.90;88.60
68387;DHT22;55338;43.062;25.624;2023-01-25T12:35:32;3.90;89.80
68387;DHT22;55338;43.062;25.624;2023-01-25T12:38:03;3.90;89.30
68387;DHT22;55338;43.062;25.624;2023-01-25T12:40:50;3.90;88.40
68387;DHT22;55338;43.062;25.624;2023-01-25T12:45:56;3.80;88.90
68387;DHT22;55338;43.062;25.624;2023-01-25T12:48:30;3.80;89.70
68387;DHT22;55338;43.062;25.624;2023-01-25T12:50:58;3.90;88.50
68387;DHT22;55338;43.062;25.624;2023-01-25T12:53:41;3.90;88.00
68387;DHT22;55338;43.062;25.624;2023-01-25T12:56:33;3.90;88.70
68387;DHT22;55338;43.062;25.624;2023-01-25T12:59:12;3.80;89.10
68387;DHT22;55338;43.062;25.624;2023-01-25T13:07:09;3.80;91.40
68387;DHT22;55338;43.062;25.624;2023-01-25T13:10:19;3.80;90.70
68387;DHT22;55338;43.062;25.624;2023-01-25T13:12:55;3.70;91.50
68387;DHT22;55338;43.062;25.624;2023-01-25T13:15:42;3.70;91.70
68387;DHT22;55338;43.062;25.624;2023-01-25T13:20:59;3.80;92.80
68387;DHT22;55338;43.062;25.624;2023-01-25T13:28:57;3.60;94.60
68387;DHT22;55338;43.062;25.624;2023-01-25T13:31:57;3.50;94.20
68387;DHT22;55338;43.062;25.624;2023-01-25T13:37:18;3.50;95.50
68387;DHT22;55338;43.062;25.624;2023-01-25T13:40:01;3.50;95.10
68387;DHT22;55338;43.062;25.624;2023-01-25T13:42:36;3.50;95.80
68387;DHT22;55338;43.062;25.624;2023-01-25T13:45:10;3.30;96.20
68387;DHT22;55338;43.062;25.624;2023-01-25T13:47:38;3.40;96.70
68387;DHT22;55338;43.062;25.624;2023-01-25T13:50:26;3.40;96.80
68387;DHT22;55338;43.062;25.624;2023-01-25T13:52:58;3.40;96.90
68387;DHT22;55338;43.062;25.624;2023-01-25T13:55:25;3.30;97.10
68387;DHT22;55338;43.062;25.624;2023-01-25T13:57:50;3.30;98.60
68387;DHT22;55338;43.062;25.624;2023-01-25T14:00:17;3.20;98.10
68387;DHT22;55338;43.062;25.624;2023-01-25T14:02:55;3.10;99.90
68387;DHT22;55338;43.062;25.624;2023-01-25T14:05:25;3.00;99.90
68387;DHT22;55338;43.062;25.624;2023-01-25T14:07:55;3.00;99.90
68387;DHT22;55338;43.062;25.624;2023-01-25T14:10:24;3.10;99.90
68387;DHT22;55338;43.062;25.624;2023-01-25T14:12:59;3.00;99.90
68387;DHT22;55338;43.062;25.624;2023-01-25T14:15:29;3.10;99.90
68387;DHT22;55338;43.062;25.624;2023-01-25T14:18:18;3.00;99.90
68387;DHT22;55338;43.062;25.624;2023-01-25T14:21:18;3.00;99.90
68387;DHT22;55338;43.062;25.624;2023-01-25T14:24:17;3.00;99.90
68387;DHT22;55338;43.062;25.624;2023-01-25T14:27:16;2.90;99.90
68387;DHT22;55338;43.062;25.624;2023-01-25T14:30:31;2.90;99.90
68387;DHT22;55338;43.062;25.624;2023-01-25T14:33:18;2.80;99.90
68387;DHT22;55338;43.062;25.624;2023-01-25T14:35:46;2.80;99.90
68387;DHT22;55338;43.062;25.624;2023-01-25T14:38:25;2.80;99.90
68387;DHT22;55338;43.062;25.624;2023-01-25T14:41:16;2.80;99.90
68387;DHT22;55338;43.062;25.624;2023-01-25T14:43:42;2.70;99.90
68387;DHT22;55338;43.062;25.624;2023-01-25T14:48:51;2.70;99.90
68387;DHT22;55338;43.062;25.624;2023-01-25T14:51:30;2.70;99.90
68387;DHT22;55338;43.062;25.624;2023-01-25T14:54:23;2.70;99.90
68387;DHT22;55338;43.062;25.624;2023-01-25T14:57:39;2.70;99.90
68387;DHT22;55338;43.062;25.624;2023-01-25T15:00:38;2.70;99.90
68387;DHT22;55338;43.062;25.624;2023-01-25T15:03:16;2.60;99.90
68387;DHT22;55338;43.062;25.624;2023-01-25T15:05:45;2.60;99.90
68387;DHT22;55338;43.062;25.624;2023-01-25T15:10:50;2.60;99.90
68387;DHT22;55338;43.062;25.624;2023-01-25T15:13:23;2.60;99.90
68387;DHT22;55338;43.062;25.624;2023-01-25T15:16:00;2.60;99.90
68387;DHT22;55338;43.062;25.624;2023-01-25T15:18:49;2.50;99.90
68387;DHT22;55338;43.062;25.624;2023-01-25T15:21:18;2.60;99.90
68387;DHT22;55338;43.062;25.624;2023-01-25T15:23:45;2.50;99.90
68387;DHT22;55338;43.062;25.624;2023-01-25T15:26:14;2.50;99.90
68387;DHT22;55338;43.062;25.624;2023-01-25T15:28:40;2.60;99.90
68387;DHT22;55338;43.062;25.624;2023-01-25T15:31:05;2.50;99.90
68387;DHT22;55338;43.062;25.624;2023-01-25T15:33:34;2.50;99.90
68387;DHT22;55338;43.062;25.624;2023-01-25T15:36:00;2.40;99.90
68387;DHT22;55338;43.062;25.624;2023-01-25T15:38:25;2.40;99.90
68387;DHT22;55338;43.062;25.624;2023-01-25T15:40:51;2.30;99.90
68387;DHT22;55338;43.062;25.624;2023-01-25T15:43:18;2.30;99.90
68387;DHT22;55338;43.062;25.624;2023-01-25T15:45:49;2.30;99.90
68387;DHT22;55338;43.062;25.624;2023-01-25T15:48:22;2.40;99.90
68387;DHT22;55338;43.062;25.624;2023-01-25T15:50:51;2.40;99.90
68387;DHT22;55338;43.062;25.624;2023-01-25T15:53:20;2.30;99.90
68387;DHT22;55338;43.062;25.624;2023-01-25T15:55:48;2.30;99.90
68387;DHT22;55338;43.062;25.624;2023-01-25T15:58:42;2.30;99.90
68387;DHT22;55338;43.062;25.624;2023-01-25T16:01:09;2.20;99.90
68387;DHT22;55338;43.062;25.624;2023-01-25T16:03:47;2.20;99.90
68387;DHT22;55338;43.062;25.624;2023-01-25T16:06:35;2.20;99.90
68387;DHT22;55338;43.062;25.624;2023-01-25T16:09:21;2.20;99.90
68387;DHT22;55338;43.062;25.624;2023-01-25T16:11:52;2.20;99.90
68387;DHT22;55338;43.062;25.624;2023-01-25T16:14:29;2.20;99.90
68387;DHT22;55338;43.062;25.624;2023-01-25T16:16:58;2.20;99.90
68387;DHT22;55338;43.062;25.624;2023-01-25T16:19:24;2.20;99.90
68387;DHT22;55338;43.062;25.624;2023-01-25T16:21:50;2.30;99.90
68387;DHT22;55338;43.062;25.624;2023-01-25T16:24:17;2.30;99.90
68387;DHT22;55338;43.062;25.624;2023-01-25T16:26:52;2.30;99.90
68387;DHT22;55338;43.062;25.624;2023-01-25T16:29:18;2.30;99.90
68387;DHT22;55338;43.062;25.624;2023-01-25T16:31:44;2.30;99.90
68387;DHT22;55338;43.062;25.624;2023-01-25T16:34:09;2.40;99.90
68387;DHT22;55338;43.062;25.624;2023-01-25T16:36:35;2.40;99.90
68387;DHT22;55338;43.062;25.624;2023-01-25T16:39:12;2.40;99.90
68387;DHT22;55338;43.062;25.624;2023-01-25T16:41:40;2.40;99.90
68387;DHT22;55338;43.062;25.624;2023-01-25T16:44:06;2.40;99.90
68387;DHT22;55338;43.062;25.624;2023-01-25T16:46:32;2.40;99.90
68387;DHT22;55338;43.062;25.624;2023-01-25T16:48:58;2.40;99.90
68387;DHT22;55338;43.062;25.624;2023-01-25T16:51:27;2.40;99.90
68387;DHT22;55338;43.062;25.624;2023-01-25T16:53:54;2.40;99.90
68387;DHT22;55338;43.062;25.624;2023-01-25T16:56:23;2.40;99.90
68387;DHT22;55338;43.062;25.624;2023-01-25T16:58:50;2.40;99.90
68387;DHT22;55338;43.062;25.624;2023-01-25T17:01:17;2.40;99.90
68387;DHT22;55338;43.062;25.624;2023-01-25T17:03:44;2.40;99.90
68387;DHT22;55338;43.062;25.624;2023-01-25T17:06:25;2.40;99.90
68387;DHT22;55338;43.062;25.624;2023-01-25T17:08:51;2.40;99.90
68387;DHT22;55338;43.062;25.624;2023-01-25T17:11:19;2.40;99.90
68387;DHT22;55338;43.062;25.624;2023-01-25T17:14:04;2.40;99.90
68387;DHT22;55338;43.062;25.624;2023-01-25T17:16:31;2.40;99.90
68387;DHT22;55338;43.062;25.624;2023-01-25T17:19:05;2.40;99.90
68387;DHT22;55338;43.062;25.624;2023-01-25T17:21:32;2.40;99.90
68387;DHT22;55338;43.062;25.624;2023-01-25T17:23:59;2.30;99.90
68387;DHT22;55338;43.062;25.624;2023-01-25T17:26:27;2.30;99.90
68387;DHT22;55338;43.062;25.624;2023-01-25T17:28:58;2.20;99.90
68387;DHT22;55338;43.062;25.624;2023-01-25T17:31:30;2.30;99.90
68387;DHT22;55338;43.062;25.624;2023-01-25T17:33:56;2.30;99.90
68387;DHT22;55338;43.062;25.624;2023-01-25T17:36:54;2.20;99.90
68387;DHT22;55338;43.062;25.624;2023-01-25T17:39:52;2.20;99.90
68387;DHT22;55338;43.062;25.624;2023-01-25T17:42:28;2.00;99.90